sensor_id;sensor_type;location;lat;lon;timestamp;P1;durP1;ratioP1;P2;durP2;ratioP2
9559;SDS011;4818;50.860;4.648;2023-05-07T00:00:13;5.47;;;1.73;;
9559;SDS011;4818;50.860;4.648;2023-05-07T00:02:44;3.85;;;1.42;;
9559;SDS011;4818;50.860;4.648;2023-05-07T00:05:10;3.40;;;1.17;;
9559;SDS011;4818;50.860;4.648;2023-05-07T00:07:36;7.72;;;1.35;;
9559;SDS011;4818;50.860;4.648;2023-05-07T00:10:03;5.20;;;1.67;;
9559;SDS011;4818;50.860;4.648;2023-05-07T00:12:31;6.45;;;2.25;;
9559;SDS011;4818;50.860;4.648;2023-05-07T00:14:59;4.70;;;1.58;;
9559;SDS011;4818;50.860;4.648;2023-05-07T00:17:25;7.25;;;1.40;;
9559;SDS011;4818;50.860;4.648;2023-05-07T00:19:51;6.68;;;1.58;;
9559;SDS011;4818;50.860;4.648;2023-05-07T00:22:17;4.30;;;1.63;;
9559;SDS011;4818;50.860;4.648;2023-05-07T00:24:44;4.28;;;1.77;;
9559;SDS011;4818;50.860;4.648;2023-05-07T00:27:10;4.00;;;1.40;;
9559;SDS011;4818;50.860;4.648;2023-05-07T00:29:36;6.90;;;1.73;;
9559;SDS011;4818;50.860;4.648;2023-05-07T00:32:05;6.65;;;1.77;;
9559;SDS011;4818;50.860;4.648;2023-05-07T00:34:34;3.37;;;1.43;;
9559;SDS011;4818;50.860;4.648;2023-05-07T00:37:00;4.93;;;1.50;;
9559;SDS011;4818;50.860;4.648;2023-05-07T00:39:27;7.88;;;1.42;;
9559;SDS011;4818;50.860;4.648;2023-05-07T00:41:53;5.75;;;1.35;;
9559;SDS011;4818;50.860;4.648;2023-05-07T00:44:19;4.45;;;2.28;;
9559;SDS011;4818;50.860;4.648;2023-05-07T00:46:50;5.38;;;1.92;;
9559;SDS011;4818;50.860;4.648;2023-05-07T00:49:19;4.25;;;1.60;;
9559;SDS011;4818;50.860;4.648;2023-05-07T00:51:46;6.85;;;1.80;;
9559;SDS011;4818;50.860;4.648;2023-05-07T00:54:12;6.40;;;1.95;;
9559;SDS011;4818;50.860;4.648;2023-05-07T00:56:39;15.95;;;2.92;;
9559;SDS011;4818;50.860;4.648;2023-05-07T00:59:08;4.72;;;1.85;;
9559;SDS011;4818;50.860;4.648;2023-05-07T01:01:36;4.53;;;1.52;;
9559;SDS011;4818;50.860;4.648;2023-05-07T01:04:02;5.47;;;1.60;;
9559;SDS011;4818;50.860;4.648;2023-05-07T01:06:29;7.68;;;1.85;;
9559;SDS011;4818;50.860;4.648;2023-05-07T01:08:56;5.38;;;2.33;;
9559;SDS011;4818;50.860;4.648;2023-05-07T01:11:22;7.10;;;1.50;;
9559;SDS011;4818;50.860;4.648;2023-05-07T01:13:50;6.97;;;1.75;;
9559;SDS011;4818;50.860;4.648;2023-05-07T01:16:19;5.40;;;1.60;;
9559;SDS011;4818;50.860;4.648;2023-05-07T01:18:46;7.32;;;2.17;;
9559;SDS011;4818;50.860;4.648;2023-05-07T01:21:14;5.07;;;1.80;;
9559;SDS011;4818;50.860;4.648;2023-05-07T01:23:41;6.07;;;1.85;;
9559;SDS011;4818;50.860;4.648;2023-05-07T01:26:07;6.55;;;1.67;;
9559;SDS011;4818;50.860;4.648;2023-05-07T01:28:34;6.75;;;2.83;;
9559;SDS011;4818;50.860;4.648;2023-05-07T01:31:01;3.83;;;1.73;;
9559;SDS011;4818;50.860;4.648;2023-05-07T01:33:31;7.38;;;2.00;;
9559;SDS011;4818;50.860;4.648;2023-05-07T01:35:59;6.43;;;1.80;;
9559;SDS011;4818;50.860;4.648;2023-05-07T01:38:28;6.72;;;2.30;;
9559;SDS011;4818;50.860;4.648;2023-05-07T01:40:56;7.70;;;2.35;;
9559;SDS011;4818;50.860;4.648;2023-05-07T01:43:22;5.80;;;2.10;;
9559;SDS011;4818;50.860;4.648;2023-05-07T01:45:48;3.83;;;2.45;;
9559;SDS011;4818;50.860;4.648;2023-05-07T01:48:14;5.30;;;2.22;;
9559;SDS011;4818;50.860;4.648;2023-05-07T01:50:41;4.53;;;2.40;;
9559;SDS011;4818;50.860;4.648;2023-05-07T01:53:13;5.50;;;2.85;;
9559;SDS011;4818;50.860;4.648;2023-05-07T01:55:40;6.00;;;2.10;;
9559;SDS011;4818;50.860;4.648;2023-05-07T01:58:06;5.30;;;2.42;;
9559;SDS011;4818;50.860;4.648;2023-05-07T02:00:32;10.40;;;2.20;;
9559;SDS011;4818;50.860;4.648;2023-05-07T02:02:58;6.95;;;2.60;;
9559;SDS011;4818;50.860;4.648;2023-05-07T02:05:27;6.13;;;2.42;;
9559;SDS011;4818;50.860;4.648;2023-05-07T02:07:53;3.63;;;1.98;;
9559;SDS011;4818;50.860;4.648;2023-05-07T02:10:19;4.88;;;2.22;;
9559;SDS011;4818;50.860;4.648;2023-05-07T02:12:48;7.70;;;2.53;;
9559;SDS011;4818;50.860;4.648;2023-05-07T02:15:14;7.60;;;2.65;;
9559;SDS011;4818;50.860;4.648;2023-05-07T02:18:00;2.97;;;1.98;;
9559;SDS011;4818;50.860;4.648;2023-05-07T02:20:27;7.00;;;2.17;;
9559;SDS011;4818;50.860;4.648;2023-05-07T02:22:58;3.65;;;2.30;;
9559;SDS011;4818;50.860;4.648;2023-05-07T02:25:24;10.85;;;2.90;;
9559;SDS011;4818;50.860;4.648;2023-05-07T02:27:50;7.13;;;2.40;;
9559;SDS011;4818;50.860;4.648;2023-05-07T02:30:16;6.00;;;2.33;;
9559;SDS011;4818;50.860;4.648;2023-05-07T02:32:43;4.03;;;1.77;;
9559;SDS011;4818;50.860;4.648;2023-05-07T02:35:09;6.63;;;2.55;;
9559;SDS011;4818;50.860;4.648;2023-05-07T02:37:35;8.38;;;2.35;;
9559;SDS011;4818;50.860;4.648;2023-05-07T02:40:04;5.40;;;2.10;;
9559;SDS011;4818;50.860;4.648;2023-05-07T02:42:31;5.30;;;2.00;;
9559;SDS011;4818;50.860;4.648;2023-05-07T02:44:57;4.78;;;2.05;;
9559;SDS011;4818;50.860;4.648;2023-05-07T02:47:24;7.90;;;2.50;;
9559;SDS011;4818;50.860;4.648;2023-05-07T02:49:54;5.60;;;2.80;;
9559;SDS011;4818;50.860;4.648;2023-05-07T02:52:23;6.78;;;1.77;;
9559;SDS011;4818;50.860;4.648;2023-05-07T02:54:49;4.53;;;2.00;;
9559;SDS011;4818;50.860;4.648;2023-05-07T02:57:15;7.63;;;3.30;;
9559;SDS011;4818;50.860;4.648;2023-05-07T02:59:42;12.18;;;3.03;;
9559;SDS011;4818;50.860;4.648;2023-05-07T03:02:08;8.38;;;2.75;;
9559;SDS011;4818;50.860;4.648;2023-05-07T03:04:34;5.35;;;3.10;;
9559;SDS011;4818;50.860;4.648;2023-05-07T03:07:01;5.90;;;2.92;;
9559;SDS011;4818;50.860;4.648;2023-05-07T03:09:27;7.75;;;3.10;;
9559;SDS011;4818;50.860;4.648;2023-05-07T03:11:53;8.68;;;3.28;;
9559;SDS011;4818;50.860;4.648;2023-05-07T03:14:19;6.38;;;3.22;;
9559;SDS011;4818;50.860;4.648;2023-05-07T03:16:46;8.00;;;3.03;;
9559;SDS011;4818;50.860;4.648;2023-05-07T03:19:15;6.10;;;2.57;;
9559;SDS011;4818;50.860;4.648;2023-05-07T03:21:43;10.75;;;3.42;;
9559;SDS011;4818;50.860;4.648;2023-05-07T03:24:09;9.95;;;3.83;;
9559;SDS011;4818;50.860;4.648;2023-05-07T03:26:35;6.05;;;3.30;;
9559;SDS011;4818;50.860;4.648;2023-05-07T03:29:02;7.88;;;3.47;;
9559;SDS011;4818;50.860;4.648;2023-05-07T03:31:30;6.28;;;3.30;;
9559;SDS011;4818;50.860;4.648;2023-05-07T03:33:57;6.20;;;3.08;;
9559;SDS011;4818;50.860;4.648;2023-05-07T03:36:23;5.30;;;3.53;;
9559;SDS011;4818;50.860;4.648;2023-05-07T03:38:51;7.97;;;2.88;;
9559;SDS011;4818;50.860;4.648;2023-05-07T03:41:18;7.72;;;3.03;;
9559;SDS011;4818;50.860;4.648;2023-05-07T03:43:49;4.70;;;3.42;;
9559;SDS011;4818;50.860;4.648;2023-05-07T03:46:15;10.57;;;4.20;;
9559;SDS011;4818;50.860;4.648;2023-05-07T03:48:41;9.45;;;3.13;;
9559;SDS011;4818;50.860;4.648;2023-05-07T03:51:07;8.07;;;3.58;;
9559;SDS011;4818;50.860;4.648;2023-05-07T03:53:34;10.25;;;3.38;;
9559;SDS011;4818;50.860;4.648;2023-05-07T03:56:00;7.10;;;2.95;;
9559;SDS011;4818;50.860;4.648;2023-05-07T03:58:31;4.70;;;3.30;;
9559;SDS011;4818;50.860;4.648;2023-05-07T04:00:57;10.88;;;3.42;;
9559;SDS011;4818;50.860;4.648;2023-05-07T04:03:26;5.22;;;3.17;;
9559;SDS011;4818;50.860;4.648;2023-05-07T04:05:52;4.72;;;2.58;;
9559;SDS011;4818;50.860;4.648;2023-05-07T04:08:21;6.88;;;3.47;;
9559;SDS011;4818;50.860;4.648;2023-05-07T04:10:47;4.70;;;2.22;;
9559;SDS011;4818;50.860;4.648;2023-05-07T04:13:13;4.18;;;3.08;;
9559;SDS011;4818;50.860;4.648;2023-05-07T04:15:39;4.88;;;2.90;;
9559;SDS011;4818;50.860;4.648;2023-05-07T04:18:05;11.38;;;3.13;;
9559;SDS011;4818;50.860;4.648;2023-05-07T04:20:33;6.25;;;3.60;;
9559;SDS011;4818;50.860;4.648;2023-05-07T04:23:02;9.38;;;4.60;;
9559;SDS011;4818;50.860;4.648;2023-05-07T04:25:28;10.30;;;4.47;;
9559;SDS011;4818;50.860;4.648;2023-05-07T04:27:55;7.63;;;3.10;;
9559;SDS011;4818;50.860;4.648;2023-05-07T04:30:21;4.45;;;2.83;;
9559;SDS011;4818;50.860;4.648;2023-05-07T04:32:48;4.40;;;2.97;;
9559;SDS011;4818;50.860;4.648;2023-05-07T04:35:14;5.80;;;3.28;;
9559;SDS011;4818;50.860;4.648;2023-05-07T04:37:40;6.63;;;3.75;;
9559;SDS011;4818;50.860;4.648;2023-05-07T04:40:06;8.13;;;3.88;;
9559;SDS011;4818;50.860;4.648;2023-05-07T04:42:33;5.15;;;3.40;;
9559;SDS011;4818;50.860;4.648;2023-05-07T04:44:59;7.60;;;3.47;;
9559;SDS011;4818;50.860;4.648;2023-05-07T04:47:26;8.52;;;3.72;;
9559;SDS011;4818;50.860;4.648;2023-05-07T04:49:52;9.80;;;3.92;;
9559;SDS011;4818;50.860;4.648;2023-05-07T04:52:18;7.32;;;3.17;;
9559;SDS011;4818;50.860;4.648;2023-05-07T04:54:49;5.07;;;2.72;;
9559;SDS011;4818;50.860;4.648;2023-05-07T04:57:16;5.50;;;3.40;;
9559;SDS011;4818;50.860;4.648;2023-05-07T04:59:43;5.00;;;2.92;;
9559;SDS011;4818;50.860;4.648;2023-05-07T05:02:12;6.50;;;3.63;;
9559;SDS011;4818;50.860;4.648;2023-05-07T05:04:41;6.43;;;3.17;;
9559;SDS011;4818;50.860;4.648;2023-05-07T05:07:07;8.35;;;4.00;;
9559;SDS011;4818;50.860;4.648;2023-05-07T05:09:33;7.38;;;3.40;;
9559;SDS011;4818;50.860;4.648;2023-05-07T05:11:59;6.65;;;2.75;;
9559;SDS011;4818;50.860;4.648;2023-05-07T05:14:26;10.43;;;3.75;;
9559;SDS011;4818;50.860;4.648;2023-05-07T05:16:52;9.07;;;3.20;;
9559;SDS011;4818;50.860;4.648;2023-05-07T05:19:18;9.70;;;3.33;;
9559;SDS011;4818;50.860;4.648;2023-05-07T05:21:44;5.82;;;3.45;;
9559;SDS011;4818;50.860;4.648;2023-05-07T05:24:13;6.25;;;4.13;;
9559;SDS011;4818;50.860;4.648;2023-05-07T05:26:40;6.70;;;2.92;;
9559;SDS011;4818;50.860;4.648;2023-05-07T05:29:06;19.63;;;3.63;;
9559;SDS011;4818;50.860;4.648;2023-05-07T05:31:32;5.80;;;2.70;;
9559;SDS011;4818;50.860;4.648;2023-05-07T05:33:59;8.18;;;2.72;;
9559;SDS011;4818;50.860;4.648;2023-05-07T05:36:25;7.97;;;2.92;;
9559;SDS011;4818;50.860;4.648;2023-05-07T05:38:51;5.38;;;2.75;;
9559;SDS011;4818;50.860;4.648;2023-05-07T05:41:17;4.88;;;3.13;;
9559;SDS011;4818;50.860;4.648;2023-05-07T05:43:43;5.05;;;2.75;;
9559;SDS011;4818;50.860;4.648;2023-05-07T05:46:10;6.22;;;3.40;;
9559;SDS011;4818;50.860;4.648;2023-05-07T05:48:36;8.32;;;3.42;;
9559;SDS011;4818;50.860;4.648;2023-05-07T05:51:05;6.65;;;3.30;;
9559;SDS011;4818;50.860;4.648;2023-05-07T05:53:31;6.57;;;4.25;;
9559;SDS011;4818;50.860;4.648;2023-05-07T05:55:58;13.90;;;3.78;;
9559;SDS011;4818;50.860;4.648;2023-05-07T05:58:26;7.55;;;4.07;;
9559;SDS011;4818;50.860;4.648;2023-05-07T06:00:55;5.65;;;3.22;;
9559;SDS011;4818;50.860;4.648;2023-05-07T06:03:24;6.18;;;3.67;;
9559;SDS011;4818;50.860;4.648;2023-05-07T06:05:50;10.05;;;4.88;;
9559;SDS011;4818;50.860;4.648;2023-05-07T06:08:16;8.88;;;4.05;;
9559;SDS011;4818;50.860;4.648;2023-05-07T06:10:43;6.78;;;3.17;;
9559;SDS011;4818;50.860;4.648;2023-05-07T06:13:09;7.30;;;3.70;;
9559;SDS011;4818;50.860;4.648;2023-05-07T06:15:36;4.30;;;2.92;;
9559;SDS011;4818;50.860;4.648;2023-05-07T06:18:02;10.05;;;4.70;;
9559;SDS011;4818;50.860;4.648;2023-05-07T06:20:28;9.38;;;4.05;;
9559;SDS011;4818;50.860;4.648;2023-05-07T06:22:55;7.63;;;4.43;;
9559;SDS011;4818;50.860;4.648;2023-05-07T06:25:21;5.72;;;3.35;;
9559;SDS011;4818;50.860;4.648;2023-05-07T06:27:49;8.48;;;3.97;;
9559;SDS011;4818;50.860;4.648;2023-05-07T06:30:16;5.78;;;3.38;;
9559;SDS011;4818;50.860;4.648;2023-05-07T06:32:42;6.47;;;3.70;;
9559;SDS011;4818;50.860;4.648;2023-05-07T06:35:08;6.78;;;4.07;;
9559;SDS011;4818;50.860;4.648;2023-05-07T06:37:34;6.85;;;3.78;;
9559;SDS011;4818;50.860;4.648;2023-05-07T06:40:04;11.35;;;4.50;;
9559;SDS011;4818;50.860;4.648;2023-05-07T06:42:30;9.02;;;3.55;;
9559;SDS011;4818;50.860;4.648;2023-05-07T06:44:57;7.80;;;3.60;;
9559;SDS011;4818;50.860;4.648;2023-05-07T06:47:23;11.93;;;4.45;;
9559;SDS011;4818;50.860;4.648;2023-05-07T06:49:49;8.20;;;4.63;;
9559;SDS011;4818;50.860;4.648;2023-05-07T06:52:15;10.05;;;3.85;;
9559;SDS011;4818;50.860;4.648;2023-05-07T06:54:42;6.55;;;3.00;;
9559;SDS011;4818;50.860;4.648;2023-05-07T06:57:08;11.38;;;3.42;;
9559;SDS011;4818;50.860;4.648;2023-05-07T06:59:34;7.18;;;3.58;;
9559;SDS011;4818;50.860;4.648;2023-05-07T07:02:00;8.52;;;3.92;;
9559;SDS011;4818;50.860;4.648;2023-05-07T07:04:26;8.25;;;2.97;;
9559;SDS011;4818;50.860;4.648;2023-05-07T07:06:55;6.87;;;1.73;;
9559;SDS011;4818;50.860;4.648;2023-05-07T07:09:22;9.80;;;3.10;;
9559;SDS011;4818;50.860;4.648;2023-05-07T07:11:50;12.70;;;3.28;;
9559;SDS011;4818;50.860;4.648;2023-05-07T07:14:16;7.53;;;2.50;;
9559;SDS011;4818;50.860;4.648;2023-05-07T07:16:43;9.18;;;2.58;;
9559;SDS011;4818;50.860;4.648;2023-05-07T07:19:09;5.97;;;2.30;;
9559;SDS011;4818;50.860;4.648;2023-05-07T07:21:40;8.00;;;3.47;;
9559;SDS011;4818;50.860;4.648;2023-05-07T07:24:06;7.68;;;2.95;;
9559;SDS011;4818;50.860;4.648;2023-05-07T07:26:32;5.68;;;2.72;;
9559;SDS011;4818;50.860;4.648;2023-05-07T07:29:01;6.10;;;2.63;;
9559;SDS011;4818;50.860;4.648;2023-05-07T07:31:27;9.25;;;1.90;;
9559;SDS011;4818;50.860;4.648;2023-05-07T07:33:53;4.35;;;1.95;;
9559;SDS011;4818;50.860;4.648;2023-05-07T07:36:19;6.40;;;2.13;;
9559;SDS011;4818;50.860;4.648;2023-05-07T07:38:46;4.95;;;1.67;;
9559;SDS011;4818;50.860;4.648;2023-05-07T07:41:12;5.30;;;1.60;;
9559;SDS011;4818;50.860;4.648;2023-05-07T07:43:38;5.25;;;1.70;;
9559;SDS011;4818;50.860;4.648;2023-05-07T07:46:04;7.72;;;1.50;;
9559;SDS011;4818;50.860;4.648;2023-05-07T07:48:31;8.35;;;1.73;;
9559;SDS011;4818;50.860;4.648;2023-05-07T07:50:57;6.38;;;1.80;;
9559;SDS011;4818;50.860;4.648;2023-05-07T07:53:23;6.45;;;1.55;;
9559;SDS011;4818;50.860;4.648;2023-05-07T07:55:52;4.50;;;1.20;;
9559;SDS011;4818;50.860;4.648;2023-05-07T07:58:18;4.55;;;1.20;;
9559;SDS011;4818;50.860;4.648;2023-05-07T08:00:44;3.60;;;1.00;;
9559;SDS011;4818;50.860;4.648;2023-05-07T08:03:12;4.00;;;1.10;;
9559;SDS011;4818;50.860;4.648;2023-05-07T08:05:39;6.82;;;0.93;;
9559;SDS011;4818;50.860;4.648;2023-05-07T08:08:05;6.63;;;1.30;;
9559;SDS011;4818;50.860;4.648;2023-05-07T08:10:32;7.60;;;1.40;;
9559;SDS011;4818;50.860;4.648;2023-05-07T08:13:00;4.88;;;1.17;;
9559;SDS011;4818;50.860;4.648;2023-05-07T08:15:27;4.43;;;1.08;;
9559;SDS011;4818;50.860;4.648;2023-05-07T08:17:53;5.63;;;1.35;;
9559;SDS011;4818;50.860;4.648;2023-05-07T08:20:25;6.13;;;1.20;;
9559;SDS011;4818;50.860;4.648;2023-05-07T08:22:56;6.85;;;1.10;;
9559;SDS011;4818;50.860;4.648;2023-05-07T08:25:23;5.18;;;1.55;;
9559;SDS011;4818;50.860;4.648;2023-05-07T08:27:49;4.93;;;2.00;;
9559;SDS011;4818;50.860;4.648;2023-05-07T08:30:15;4.75;;;1.88;;
9559;SDS011;4818;50.860;4.648;2023-05-07T08:32:51;5.03;;;1.83;;
9559;SDS011;4818;50.860;4.648;2023-05-07T08:35:17;6.00;;;2.15;;
9559;SDS011;4818;50.860;4.648;2023-05-07T08:37:43;4.50;;;1.75;;
9559;SDS011;4818;50.860;4.648;2023-05-07T08:40:10;9.55;;;2.28;;
9559;SDS011;4818;50.860;4.648;2023-05-07T08:42:36;5.07;;;1.77;;
9559;SDS011;4818;50.860;4.648;2023-05-07T08:45:13;7.97;;;2.33;;
9559;SDS011;4818;50.860;4.648;2023-05-07T08:47:46;6.60;;;2.40;;
9559;SDS011;4818;50.860;4.648;2023-05-07T08:50:15;5.68;;;2.45;;
9559;SDS011;4818;50.860;4.648;2023-05-07T08:52:54;7.93;;;2.13;;
9559;SDS011;4818;50.860;4.648;2023-05-07T08:55:21;8.57;;;2.20;;
9559;SDS011;4818;50.860;4.648;2023-05-07T08:57:50;6.85;;;2.65;;
9559;SDS011;4818;50.860;4.648;2023-05-07T09:00:18;7.18;;;2.53;;
9559;SDS011;4818;50.860;4.648;2023-05-07T09:02:44;9.73;;;2.13;;
9559;SDS011;4818;50.860;4.648;2023-05-07T09:05:12;6.53;;;2.45;;
9559;SDS011;4818;50.860;4.648;2023-05-07T09:07:43;13.35;;;3.05;;
9559;SDS011;4818;50.860;4.648;2023-05-07T09:10:11;7.07;;;2.70;;
9559;SDS011;4818;50.860;4.648;2023-05-07T09:12:39;6.63;;;2.50;;
9559;SDS011;4818;50.860;4.648;2023-05-07T09:15:11;10.48;;;2.10;;
9559;SDS011;4818;50.860;4.648;2023-05-07T09:17:37;9.05;;;2.05;;
9559;SDS011;4818;50.860;4.648;2023-05-07T09:20:08;10.57;;;2.92;;
9559;SDS011;4818;50.860;4.648;2023-05-07T09:22:38;8.30;;;2.00;;
9559;SDS011;4818;50.860;4.648;2023-05-07T09:25:08;3.42;;;1.55;;
9559;SDS011;4818;50.860;4.648;2023-05-07T09:27:37;8.27;;;2.08;;
9559;SDS011;4818;50.860;4.648;2023-05-07T09:30:10;3.97;;;1.77;;
9559;SDS011;4818;50.860;4.648;2023-05-07T09:32:36;7.65;;;2.08;;
9559;SDS011;4818;50.860;4.648;2023-05-07T09:35:14;6.40;;;1.80;;
9559;SDS011;4818;50.860;4.648;2023-05-07T09:37:46;4.90;;;2.00;;
9559;SDS011;4818;50.860;4.648;2023-05-07T09:40:23;4.60;;;1.50;;
9559;SDS011;4818;50.860;4.648;2023-05-07T09:42:54;9.45;;;2.08;;
9559;SDS011;4818;50.860;4.648;2023-05-07T09:45:29;5.63;;;2.35;;
9559;SDS011;4818;50.860;4.648;2023-05-07T09:48:01;7.22;;;1.98;;
9559;SDS011;4818;50.860;4.648;2023-05-07T09:50:32;6.65;;;2.15;;
9559;SDS011;4818;50.860;4.648;2023-05-07T09:53:02;9.23;;;1.75;;
9559;SDS011;4818;50.860;4.648;2023-05-07T09:55:34;7.75;;;2.72;;
9559;SDS011;4818;50.860;4.648;2023-05-07T09:58:20;3.70;;;1.85;;
9559;SDS011;4818;50.860;4.648;2023-05-07T10:00:49;4.35;;;1.30;;
9559;SDS011;4818;50.860;4.648;2023-05-07T10:03:16;7.28;;;2.40;;
9559;SDS011;4818;50.860;4.648;2023-05-07T10:06:02;7.05;;;2.30;;
9559;SDS011;4818;50.860;4.648;2023-05-07T10:08:36;5.43;;;2.55;;
9559;SDS011;4818;50.860;4.648;2023-05-07T10:11:07;11.40;;;2.67;;
9559;SDS011;4818;50.860;4.648;2023-05-07T10:13:47;5.80;;;2.05;;
9559;SDS011;4818;50.860;4.648;2023-05-07T10:16:23;9.30;;;2.55;;
9559;SDS011;4818;50.860;4.648;2023-05-07T10:18:55;7.90;;;2.90;;
9559;SDS011;4818;50.860;4.648;2023-05-07T10:21:23;6.57;;;2.53;;
9559;SDS011;4818;50.860;4.648;2023-05-07T10:23:50;5.93;;;1.73;;
9559;SDS011;4818;50.860;4.648;2023-05-07T10:26:17;8.32;;;1.65;;
9559;SDS011;4818;50.860;4.648;2023-05-07T10:28:45;9.13;;;1.75;;
9559;SDS011;4818;50.860;4.648;2023-05-07T10:33:38;6.35;;;1.55;;
9559;SDS011;4818;50.860;4.648;2023-05-07T10:36:10;7.25;;;1.73;;
9559;SDS011;4818;50.860;4.648;2023-05-07T10:38:37;3.53;;;1.00;;
9559;SDS011;4818;50.860;4.648;2023-05-07T10:41:06;2.57;;;0.87;;
9559;SDS011;4818;50.860;4.648;2023-05-07T10:43:40;4.82;;;1.08;;
9559;SDS011;4818;50.860;4.648;2023-05-07T10:46:10;4.72;;;1.02;;
9559;SDS011;4818;50.860;4.648;2023-05-07T10:52:10;7.53;;;1.42;;
9559;SDS011;4818;50.860;4.648;2023-05-07T10:57:36;8.10;;;1.35;;
9559;SDS011;4818;50.860;4.648;2023-05-07T11:00:03;3.40;;;1.17;;
9559;SDS011;4818;50.860;4.648;2023-05-07T11:05:30;6.55;;;1.63;;
9559;SDS011;4818;50.860;4.648;2023-05-07T11:08:00;7.53;;;1.05;;
9559;SDS011;4818;50.860;4.648;2023-05-07T11:10:52;6.68;;;1.40;;
9559;SDS011;4818;50.860;4.648;2023-05-07T11:13:40;1.48;;;0.55;;
9559;SDS011;4818;50.860;4.648;2023-05-07T11:16:05;5.43;;;1.02;;
9559;SDS011;4818;50.860;4.648;2023-05-07T11:21:34;3.75;;;1.23;;
9559;SDS011;4818;50.860;4.648;2023-05-07T11:24:09;5.30;;;1.10;;
9559;SDS011;4818;50.860;4.648;2023-05-07T11:26:46;4.03;;;0.85;;
9559;SDS011;4818;50.860;4.648;2023-05-07T11:29:16;1.92;;;0.70;;
9559;SDS011;4818;50.860;4.648;2023-05-07T11:31:48;4.47;;;0.60;;
9559;SDS011;4818;50.860;4.648;2023-05-07T11:34:26;2.30;;;1.00;;
9559;SDS011;4818;50.860;4.648;2023-05-07T11:36:52;6.25;;;1.33;;
9559;SDS011;4818;50.860;4.648;2023-05-07T11:41:50;4.88;;;0.80;;
9559;SDS011;4818;50.860;4.648;2023-05-07T11:44:21;4.43;;;1.17;;
9559;SDS011;4818;50.860;4.648;2023-05-07T11:46:50;7.05;;;0.90;;
9559;SDS011;4818;50.860;4.648;2023-05-07T11:49:19;9.07;;;1.43;;
9559;SDS011;4818;50.860;4.648;2023-05-07T11:51:50;6.72;;;1.02;;
9559;SDS011;4818;50.860;4.648;2023-05-07T11:54:16;6.95;;;1.10;;
9559;SDS011;4818;50.860;4.648;2023-05-07T11:56:43;6.85;;;1.25;;
9559;SDS011;4818;50.860;4.648;2023-05-07T11:59:16;5.10;;;1.30;;
9559;SDS011;4818;50.860;4.648;2023-05-07T12:02:20;4.32;;;1.10;;
9559;SDS011;4818;50.860;4.648;2023-05-07T12:04:46;4.30;;;0.60;;
9559;SDS011;4818;50.860;4.648;2023-05-07T12:07:13;3.53;;;1.00;;
9559;SDS011;4818;50.860;4.648;2023-05-07T12:09:57;6.57;;;1.10;;
9559;SDS011;4818;50.860;4.648;2023-05-07T12:12:23;6.25;;;1.35;;
9559;SDS011;4818;50.860;4.648;2023-05-07T12:14:52;4.13;;;0.77;;
9559;SDS011;4818;50.860;4.648;2023-05-07T12:17:18;3.67;;;0.93;;
9559;SDS011;4818;50.860;4.648;2023-05-07T12:19:59;2.58;;;0.75;;
9559;SDS011;4818;50.860;4.648;2023-05-07T12:22:28;4.32;;;1.00;;
9559;SDS011;4818;50.860;4.648;2023-05-07T12:24:58;2.67;;;0.90;;
9559;SDS011;4818;50.860;4.648;2023-05-07T12:27:40;3.67;;;0.80;;
9559;SDS011;4818;50.860;4.648;2023-05-07T12:30:09;2.08;;;0.77;;
9559;SDS011;4818;50.860;4.648;2023-05-07T12:32:37;3.28;;;0.73;;
9559;SDS011;4818;50.860;4.648;2023-05-07T12:35:05;3.53;;;0.77;;
9559;SDS011;4818;50.860;4.648;2023-05-07T12:37:32;5.30;;;0.80;;
9559;SDS011;4818;50.860;4.648;2023-05-07T12:40:09;5.78;;;1.13;;
9559;SDS011;4818;50.860;4.648;2023-05-07T12:42:52;4.55;;;0.88;;
9559;SDS011;4818;50.860;4.648;2023-05-07T12:45:20;2.97;;;0.70;;
9559;SDS011;4818;50.860;4.648;2023-05-07T12:47:49;7.30;;;0.88;;
9559;SDS011;4818;50.860;4.648;2023-05-07T12:50:22;2.45;;;0.60;;
9559;SDS011;4818;50.860;4.648;2023-05-07T12:52:58;2.47;;;0.90;;
9559;SDS011;4818;50.860;4.648;2023-05-07T12:55:31;4.30;;;0.55;;
9559;SDS011;4818;50.860;4.648;2023-05-07T12:58:00;3.97;;;0.73;;
9559;SDS011;4818;50.860;4.648;2023-05-07T13:00:37;6.57;;;0.93;;
9559;SDS011;4818;50.860;4.648;2023-05-07T13:03:06;3.05;;;0.73;;
9559;SDS011;4818;50.860;4.648;2023-05-07T13:05:33;3.15;;;0.75;;
9559;SDS011;4818;50.860;4.648;2023-05-07T13:08:02;1.27;;;0.50;;
9559;SDS011;4818;50.860;4.648;2023-05-07T13:10:30;3.87;;;0.60;;
9559;SDS011;4818;50.860;4.648;2023-05-07T13:12:59;2.55;;;0.90;;
9559;SDS011;4818;50.860;4.648;2023-05-07T13:15:27;5.28;;;0.80;;
9559;SDS011;4818;50.860;4.648;2023-05-07T13:17:54;1.73;;;0.47;;
9559;SDS011;4818;50.860;4.648;2023-05-07T13:20:25;2.95;;;0.60;;
9559;SDS011;4818;50.860;4.648;2023-05-07T13:22:52;2.10;;;0.52;;
9559;SDS011;4818;50.860;4.648;2023-05-07T13:25:20;1.92;;;0.60;;
9559;SDS011;4818;50.860;4.648;2023-05-07T13:27:47;1.60;;;0.57;;
9559;SDS011;4818;50.860;4.648;2023-05-07T13:30:16;4.28;;;1.55;;
9559;SDS011;4818;50.860;4.648;2023-05-07T13:32:42;1.98;;;0.60;;
9559;SDS011;4818;50.860;4.648;2023-05-07T13:35:15;1.67;;;0.60;;
9559;SDS011;4818;50.860;4.648;2023-05-07T13:37:41;2.10;;;0.43;;
9559;SDS011;4818;50.860;4.648;2023-05-07T13:40:08;3.30;;;0.77;;
9559;SDS011;4818;50.860;4.648;2023-05-07T13:42:34;2.38;;;0.50;;
9559;SDS011;4818;50.860;4.648;2023-05-07T13:45:03;3.47;;;0.50;;
9559;SDS011;4818;50.860;4.648;2023-05-07T13:47:34;6.10;;;1.50;;
9559;SDS011;4818;50.860;4.648;2023-05-07T13:50:00;3.20;;;0.57;;
9559;SDS011;4818;50.860;4.648;2023-05-07T13:52:27;1.45;;;0.60;;
9559;SDS011;4818;50.860;4.648;2023-05-07T13:54:57;2.40;;;0.70;;
9559;SDS011;4818;50.860;4.648;2023-05-07T13:57:24;3.17;;;0.70;;
9559;SDS011;4818;50.860;4.648;2023-05-07T13:59:52;2.30;;;0.60;;
9559;SDS011;4818;50.860;4.648;2023-05-07T14:02:18;1.52;;;0.50;;
9559;SDS011;4818;50.860;4.648;2023-05-07T14:04:45;2.83;;;0.55;;
9559;SDS011;4818;50.860;4.648;2023-05-07T14:07:13;6.63;;;1.13;;
9559;SDS011;4818;50.860;4.648;2023-05-07T14:09:47;5.28;;;1.38;;
9559;SDS011;4818;50.860;4.648;2023-05-07T14:12:38;3.17;;;0.75;;
9559;SDS011;4818;50.860;4.648;2023-05-07T14:15:10;4.82;;;1.10;;
9559;SDS011;4818;50.860;4.648;2023-05-07T14:17:41;2.80;;;0.80;;
9559;SDS011;4818;50.860;4.648;2023-05-07T14:20:08;8.93;;;1.00;;
9559;SDS011;4818;50.860;4.648;2023-05-07T14:22:38;6.38;;;1.38;;
9559;SDS011;4818;50.860;4.648;2023-05-07T14:25:05;1.92;;;0.98;;
9559;SDS011;4818;50.860;4.648;2023-05-07T14:27:35;3.25;;;1.63;;
9559;SDS011;4818;50.860;4.648;2023-05-07T14:30:04;3.13;;;0.80;;
9559;SDS011;4818;50.860;4.648;2023-05-07T14:32:31;3.78;;;0.90;;
9559;SDS011;4818;50.860;4.648;2023-05-07T14:35:00;2.78;;;0.93;;
9559;SDS011;4818;50.860;4.648;2023-05-07T14:37:29;3.90;;;0.80;;
9559;SDS011;4818;50.860;4.648;2023-05-07T14:40:16;3.40;;;0.70;;
9559;SDS011;4818;50.860;4.648;2023-05-07T14:42:45;2.05;;;0.60;;
9559;SDS011;4818;50.860;4.648;2023-05-07T14:45:14;1.63;;;0.98;;
9559;SDS011;4818;50.860;4.648;2023-05-07T14:47:40;2.92;;;0.52;;
9559;SDS011;4818;50.860;4.648;2023-05-07T14:50:13;3.90;;;1.15;;
9559;SDS011;4818;50.860;4.648;2023-05-07T14:52:44;1.75;;;0.77;;
9559;SDS011;4818;50.860;4.648;2023-05-07T14:55:20;3.00;;;0.70;;
9559;SDS011;4818;50.860;4.648;2023-05-07T14:57:49;2.10;;;0.70;;
9559;SDS011;4818;50.860;4.648;2023-05-07T15:00:22;3.33;;;0.85;;
9559;SDS011;4818;50.860;4.648;2023-05-07T15:02:51;2.42;;;0.73;;
9559;SDS011;4818;50.860;4.648;2023-05-07T15:05:20;2.25;;;0.80;;
9559;SDS011;4818;50.860;4.648;2023-05-07T15:08:09;2.33;;;0.93;;
9559;SDS011;4818;50.860;4.648;2023-05-07T15:10:50;1.85;;;0.70;;
9559;SDS011;4818;50.860;4.648;2023-05-07T15:13:19;3.33;;;1.05;;
9559;SDS011;4818;50.860;4.648;2023-05-07T15:15:50;5.10;;;1.52;;
9559;SDS011;4818;50.860;4.648;2023-05-07T15:18:20;6.38;;;0.80;;
9559;SDS011;4818;50.860;4.648;2023-05-07T15:20:48;3.47;;;0.70;;
9559;SDS011;4818;50.860;4.648;2023-05-07T15:23:24;2.92;;;1.17;;
9559;SDS011;4818;50.860;4.648;2023-05-07T15:25:53;2.17;;;1.45;;
9559;SDS011;4818;50.860;4.648;2023-05-07T15:28:19;2.55;;;0.90;;
9559;SDS011;4818;50.860;4.648;2023-05-07T15:30:46;5.38;;;1.50;;
9559;SDS011;4818;50.860;4.648;2023-05-07T15:33:24;5.38;;;1.17;;
9559;SDS011;4818;50.860;4.648;2023-05-07T15:35:55;2.85;;;1.08;;
9559;SDS011;4818;50.860;4.648;2023-05-07T15:38:31;2.88;;;1.25;;
9559;SDS011;4818;50.860;4.648;2023-05-07T15:41:01;2.17;;;1.45;;